Time;durP1;ratioP1;P1;durP2;ratioP2;P2;SDS_P1;SDS_P2;PMS_P1;PMS_P2;Temp;Humidity;BMP_temperature;BMP_pressure;BME280_temperature;BME280_humidity;BME280_pressure;Samples;Min_cycle;Max_cycle;Signal;HPM_P1;HPM_P2
2022/02/26 00:00:38;;;;;;;29.55;10.70;;;;;;;-1.45;75.44;96768.34;6300404;22;19999;-62
2022/02/26 00:03:04;;;;;;;14.90;10.63;;;;;;;-1.40;74.98;96757.88;6300459;22;20006;-62
2022/02/26 00:05:29;;;;;;;16.88;8.98;;;;;;;-1.37;75.34;96771.53;6300214;22;20446;-62
2022/02/26 00:07:55;;;;;;;16.15;10.30;;;;;;;-1.36;75.46;96769.81;6299963;22;20458;-62
2022/02/26 00:10:20;;;;;;;27.85;14.52;;;;;;;-1.45;76.92;96766.59;6299702;22;20019;-62
2022/02/26 00:12:46;;;;;;;21.02;12.95;;;;;;;-1.47;76.12;96768.38;6300348;22;20048;-62
2022/02/26 00:15:11;;;;;;;43.90;21.38;;;;;;;-1.50;77.94;96770.19;6300313;22;20042;-62
2022/02/26 00:17:36;;;;;;;42.38;19.75;;;;;;;-1.51;78.56;96784.84;6299285;22;20346;-62
2022/02/26 00:20:04;;;;;;;16.42;10.77;;;;;;;-1.58;80.32;96773.00;6298188;22;20074;-62
2022/02/26 00:22:30;;;;;;;10.02;7.03;;;;;;;-1.51;79.20;96774.50;6272546;22;20469;-62
2022/02/26 00:24:55;;;;;;;12.07;8.07;;;;;;;-1.54;79.98;96769.44;6300296;22;19999;-62
2022/02/26 00:27:20;;;;;;;12.65;9.00;;;;;;;-1.63;80.68;96767.94;6300773;22;20007;-62
2022/02/26 00:29:46;;;;;;;16.42;11.18;;;;;;;-1.64;79.48;96768.81;6300612;22;20457;-62
2022/02/26 00:32:12;;;;;;;16.40;10.20;;;;;;;-1.59;79.07;96768.72;6300744;22;20006;-62
2022/02/26 00:34:37;;;;;;;24.77;17.33;;;;;;;-1.53;78.59;96762.53;6300427;22;20431;-62
2022/02/26 00:37:03;;;;;;;19.17;14.55;;;;;;;-1.53;77.93;96765.13;6300562;22;20442;-62
2022/02/26 00:39:29;;;;;;;13.75;11.25;;;;;;;-1.55;77.91;96761.72;6300707;22;20038;-62
2022/02/26 00:41:54;;;;;;;13.65;10.02;;;;;;;-1.64;79.96;96771.41;6300634;22;20011;-62
2022/02/26 00:44:20;;;;;;;22.30;14.27;;;;;;;-1.68;80.24;96774.09;6300838;22;20004;-62
2022/02/26 00:46:45;;;;;;;17.52;11.23;;;;;;;-1.67;79.36;96763.75;6301187;22;20015;-62
2022/02/26 00:51:58;;;;;;;11.00;8.95;;;;;;;-1.64;77.62;96765.41;6300684;22;20068;-62
2022/02/26 00:54:24;;;;;;;18.63;11.95;;;;;;;-1.62;77.93;96763.63;6300640;22;20007;-62
2022/02/26 00:56:50;;;;;;;12.27;5.78;;;;;;;-1.77;78.96;96768.31;6300705;22;20006;-62
2022/02/26 00:59:15;;;;;;;10.35;6.97;;;;;;;-1.84;79.07;96766.78;6300640;22;20056;-62
2022/02/26 01:01:40;;;;;;;7.28;5.00;;;;;;;-1.78;78.34;96776.94;6300526;22;20006;-62
2022/02/26 01:04:06;;;;;;;6.45;4.72;;;;;;;-1.81;78.00;96777.03;6298776;22;20449;-62
2022/02/26 01:06:33;;;;;;;10.18;5.65;;;;;;;-1.79;79.32;96782.13;6300913;22;20490;-62
2022/02/26 01:08:58;;;;;;;8.02;6.00;;;;;;;-1.74;78.03;96768.22;6300778;22;20369;-62
2022/02/26 01:11:23;;;;;;;10.32;5.50;;;;;;;-1.73;78.20;96767.31;6300335;22;20018;-62
2022/02/26 01:13:49;;;;;;;6.07;5.43;;;;;;;-1.82;79.52;96770.16;6300853;22;20007;-62
2022/02/26 01:16:14;;;;;;;6.93;4.80;;;;;;;-1.93;80.09;96767.84;6300593;22;20071;-62
2022/02/26 01:18:40;;;;;;;8.65;4.95;;;;;;;-1.84;79.40;96773.66;6300520;22;20067;-62
2022/02/26 01:21:05;;;;;;;9.18;5.07;;;;;;;-1.74;77.49;96773.38;6300629;22;20081;-62
2022/02/26 01:23:31;;;;;;;26.08;13.00;;;;;;;-1.52;76.60;96767.66;6300837;22;20055;-62
2022/02/26 01:25:57;;;;;;;16.67;9.70;;;;;;;-1.65;76.90;96771.47;6300599;22;20006;-62
2022/02/26 01:28:22;;;;;;;24.38;12.02;;;;;;;-1.81;78.41;96761.53;6300927;22;20007;-62
2022/02/26 01:30:48;;;;;;;21.38;11.20;;;;;;;-1.91;78.91;96755.75;6300636;22;20011;-62
2022/02/26 01:33:13;;;;;;;23.55;11.48;;;;;;;-1.94;79.72;96762.72;6300438;22;20042;-62
2022/02/26 01:35:39;;;;;;;20.10;12.43;;;;;;;-1.94;79.40;96761.00;6299871;22;20011;-62
2022/02/26 01:38:05;;;;;;;20.08;11.30;;;;;;;-1.88;79.62;96749.66;6300521;22;20037;-62
2022/02/26 01:40:30;;;;;;;22.13;12.50;;;;;;;-1.90;79.02;96762.59;6300628;22;20004;-62
2022/02/26 01:42:55;;;;;;;34.35;17.90;;;;;;;-1.76;77.44;96746.75;6300560;22;20004;-62
2022/02/26 01:45:23;;;;;;;42.22;21.25;;;;;;;-1.85;78.19;96739.25;6300342;22;20007;-62
2022/02/26 01:47:48;;;;;;;32.85;18.02;;;;;;;-1.90;78.31;96741.97;6300399;22;20004;-62
2022/02/26 01:50:15;;;;;;;28.95;16.35;;;;;;;-1.97;78.81;96739.56;6300648;22;20010;-61
2022/02/26 01:52:41;;;;;;;23.63;14.95;;;;;;;-2.00;79.97;96737.06;6300441;22;20517;-62
2022/02/26 01:55:08;;;;;;;23.50;13.57;;;;;;;-2.00;79.43;96734.50;6300271;22;20003;-62
2022/02/26 01:57:33;;;;;;;23.23;13.25;;;;;;;-2.03;79.14;96730.25;6299765;22;20047;-62
2022/02/26 01:59:59;;;;;;;22.50;12.32;;;;;;;-2.10;80.53;96729.56;6300258;22;20074;-62
2022/02/26 02:02:24;;;;;;;20.05;12.10;;;;;;;-2.14;81.30;96727.94;6300438;22;20018;-62
2022/02/26 02:04:50;;;;;;;26.35;13.10;;;;;;;-2.16;80.74;96727.97;6300482;22;20074;-62
2022/02/26 02:07:15;;;;;;;23.00;13.50;;;;;;;-2.13;79.64;96721.06;6300442;22;20034;-62
2022/02/26 02:09:42;;;;;;;25.38;15.48;;;;;;;-2.16;79.64;96717.66;6300259;22;20011;-62
2022/02/26 02:12:09;;;;;;;25.27;15.30;;;;;;;-2.17;80.58;96712.53;6300242;22;20003;-62
2022/02/26 02:14:34;;;;;;;22.70;16.15;;;;;;;-2.25;81.05;96710.13;6300260;22;20435;-62
2022/02/26 02:17:01;;;;;;;20.10;14.25;;;;;;;-2.31;81.90;96706.00;6300260;22;20051;-62
2022/02/26 02:19:26;;;;;;;12.65;9.52;;;;;;;-2.37;81.35;96698.38;6300441;22;20059;-62
2022/02/26 02:21:52;;;;;;;14.15;8.93;;;;;;;-2.39;80.59;96705.31;6300176;22;20004;-62
2022/02/26 02:24:17;;;;;;;7.68;5.00;;;;;;;-2.34;79.29;96695.72;6300293;22;20010;-62
2022/02/26 02:26:45;;;;;;;9.93;6.95;;;;;;;-2.26;79.66;96684.41;6300125;22;20430;-62
2022/02/26 02:29:10;;;;;;;10.18;6.10;;;;;;;-2.23;78.93;96686.88;6300039;22;20004;-62
2022/02/26 02:31:36;;;;;;;8.35;5.35;;;;;;;-2.34;79.44;96690.56;6300312;22;20082;-62
2022/02/26 02:34:01;;;;;;;6.85;4.82;;;;;;;-2.47;81.27;96686.63;6300016;22;20014;-62
2022/02/26 02:36:27;;;;;;;10.68;5.38;;;;;;;-2.48;80.98;96687.50;6300743;22;20003;-62
2022/02/26 02:38:53;;;;;;;7.68;4.55;;;;;;;-2.45;80.28;96687.44;6272651;22;20049;-62
2022/02/26 02:41:18;;;;;;;6.50;4.50;;;;;;;-2.45;79.61;96688.25;6300054;22;20003;-62
2022/02/26 02:43:44;;;;;;;7.75;4.10;;;;;;;-2.47;79.81;96690.03;6300198;22;20027;-62
2022/02/26 02:46:09;;;;;;;4.80;4.30;;;;;;;-2.48;79.99;96688.34;6300114;22;20059;-61
2022/02/26 02:48:36;;;;;;;5.75;4.70;;;;;;;-2.42;80.11;96682.19;6301394;22;20007;-62
2022/02/26 02:51:02;;;;;;;7.47;4.65;;;;;;;-2.38;80.04;96678.63;6301191;22;20006;-62
2022/02/26 02:53:27;;;;;;;11.35;7.85;;;;;;;-2.41;80.03;96681.31;6301569;22;20003;-62
2022/02/26 02:55:53;;;;;;;10.68;6.35;;;;;;;-2.46;80.23;96678.81;6273750;22;20011;-63
2022/02/26 02:58:21;;;;;;;11.15;6.07;;;;;;;-2.54;81.28;96685.91;6301263;22;20079;-62
2022/02/26 03:00:46;;;;;;;12.55;8.30;;;;;;;-2.59;81.44;96685.19;6301270;22;20010;-62
2022/02/26 03:03:12;;;;;;;12.77;7.70;;;;;;;-2.57;81.28;96687.72;6301323;22;20082;-62
2022/02/26 03:05:37;;;;;;;10.27;7.68;;;;;;;-2.59;82.57;96683.44;6301138;22;20003;-62
2022/02/26 03:08:03;;;;;;;9.02;6.68;;;;;;;-2.65;82.07;96686.16;6301180;22;20003;-62
2022/02/26 03:10:28;;;;;;;8.75;5.95;;;;;;;-2.65;81.68;96681.00;6300948;22;20015;-62
2022/02/26 03:12:54;;;;;;;6.68;4.68;;;;;;;-2.65;81.64;96670.69;6301422;22;20003;-62
2022/02/26 03:15:21;;;;;;;9.80;5.63;;;;;;;-2.69;82.27;96674.25;6300420;22;20042;-62
2022/02/26 03:17:47;;;;;;;14.70;8.07;;;;;;;-2.71;81.36;96673.44;6301032;22;20409;-61
2022/02/26 03:20:12;;;;;;;22.48;14.23;;;;;;;-2.70;80.89;96667.41;6301258;22;19999;-62
2022/02/26 03:22:38;;;;;;;16.75;10.02;;;;;;;-2.68;81.37;96675.94;6301328;22;20338;-62
2022/02/26 03:25:04;;;;;;;13.43;9.13;;;;;;;-2.70;81.32;96666.53;6301021;22;20018;-62
2022/02/26 03:27:29;;;;;;;14.75;7.55;;;;;;;-2.74;81.38;96668.34;6301332;22;20450;-62
2022/02/26 03:29:54;;;;;;;11.23;7.82;;;;;;;-2.76;81.76;96667.56;6300998;22;20438;-62
2022/02/26 03:32:20;;;;;;;12.75;6.72;;;;;;;-2.76;81.50;96667.56;6301097;22;20006;-62
2022/02/26 03:34:45;;;;;;;13.30;7.07;;;;;;;-2.74;81.92;96655.47;6300992;22;20007;-61
2022/02/26 03:37:11;;;;;;;8.13;5.40;;;;;;;-2.77;80.83;96650.34;6301136;22;20004;-61
2022/02/26 03:39:36;;;;;;;7.97;5.38;;;;;;;-2.79;80.85;96655.56;6301031;22;20383;-61
2022/02/26 03:42:04;;;;;;;12.38;5.55;;;;;;;-2.81;82.00;96664.22;6301350;22;20000;-62
2022/02/26 03:44:31;;;;;;;9.32;5.75;;;;;;;-2.83;80.74;96656.53;6300909;22;20078;-62
2022/02/26 03:46:57;;;;;;;11.20;5.30;;;;;;;-2.90;80.72;96658.41;6301238;22;20007;-62
2022/02/26 03:49:23;;;;;;;8.23;4.57;;;;;;;-2.88;80.52;96664.38;6301238;22;20016;-62
2022/02/26 03:51:48;;;;;;;10.75;6.25;;;;;;;-2.92;80.96;96662.75;6301094;22;20078;-61
2022/02/26 03:54:14;;;;;;;6.70;4.82;;;;;;;-3.03;81.93;96664.69;6300214;22;20466;-62
2022/02/26 03:56:40;;;;;;;6.72;4.82;;;;;;;-3.11;82.28;96674.34;6301482;22;20060;-62
2022/02/26 03:59:05;;;;;;;6.53;4.82;;;;;;;-3.13;82.23;96673.53;6300532;22;20372;-62
2022/02/26 04:01:31;;;;;;;7.10;4.28;;;;;;;-3.11;82.54;96672.59;6301158;22;20074;-61
2022/02/26 04:03:56;;;;;;;6.22;4.35;;;;;;;-3.08;82.37;96680.28;6300896;22;19996;-61
2022/02/26 04:06:21;;;;;;;8.82;4.75;;;;;;;-3.03;81.72;96678.44;6300945;22;20082;-61
2022/02/26 04:08:47;;;;;;;8.48;5.40;;;;;;;-2.92;81.33;96678.22;6300869;22;20123;-62
2022/02/26 04:11:12;;;;;;;12.55;7.38;;;;;;;-2.92;80.99;96683.38;6300690;22;20064;-62
2022/02/26 04:13:38;;;;;;;11.70;6.50;;;;;;;-2.86;79.54;96676.38;6300945;22;20055;-61
2022/02/26 04:16:04;;;;;;;9.93;6.35;;;;;;;-2.88;80.24;96678.97;6301076;22;20007;-62
2022/02/26 04:18:30;;;;;;;12.23;5.85;;;;;;;-2.96;81.64;96686.91;6301015;22;20003;-62
2022/02/26 04:20:55;;;;;;;10.90;6.45;;;;;;;-2.95;81.37;96693.75;6301019;22;20011;-62
2022/02/26 04:23:21;;;;;;;8.95;5.75;;;;;;;-2.98;80.91;96692.94;6301253;22;20007;-62
2022/02/26 04:25:47;;;;;;;7.80;6.22;;;;;;;-3.02;82.77;96681.84;6301028;22;19999;-62
2022/02/26 04:28:12;;;;;;;10.27;6.25;;;;;;;-3.06;82.30;96685.38;6300606;22;19999;-61
2022/02/26 04:30:37;;;;;;;9.88;6.28;;;;;;;-3.11;81.96;96687.22;6301102;22;20003;-62
2022/02/26 04:33:04;;;;;;;9.55;5.90;;;;;;;-3.10;82.48;96678.63;6273433;22;20015;-62
2022/02/26 04:35:29;;;;;;;8.20;5.13;;;;;;;-3.09;82.33;96676.03;6301003;22;20011;-62
2022/02/26 04:37:54;;;;;;;9.45;4.95;;;;;;;-3.10;83.00;96674.28;6300725;22;20003;-61
2022/02/26 04:40:20;;;;;;;7.28;5.03;;;;;;;-3.14;82.88;96671.84;6300707;22;20010;-62
2022/02/26 04:42:46;;;;;;;7.35;4.82;;;;;;;-3.21;83.13;96674.53;6300609;22;20063;-62
2022/02/26 04:45:12;;;;;;;7.65;5.28;;;;;;;-3.25;82.22;96672.91;6300698;22;20003;-62
2022/02/26 04:47:39;;;;;;;9.23;5.75;;;;;;;-3.29;84.06;96663.56;6300929;22;20008;-61
2022/02/26 04:50:07;;;;;;;7.70;4.93;;;;;;;-3.31;83.05;96663.59;6300552;22;20007;-62
2022/02/26 04:52:32;;;;;;;7.78;5.25;;;;;;;-3.34;81.73;96660.25;6300966;22;20226;-62
2022/02/26 04:54:58;;;;;;;6.38;4.53;;;;;;;-3.23;81.53;96657.44;6300474;22;20007;-62
2022/02/26 04:57:23;;;;;;;8.07;4.55;;;;;;;-3.32;81.92;96655.91;6301028;22;20011;-62
2022/02/26 04:59:49;;;;;;;5.53;4.50;;;;;;;-3.34;81.84;96660.25;6300664;22;20026;-61
2022/02/26 05:02:15;;;;;;;6.15;4.57;;;;;;;-3.31;82.34;96660.16;6300750;22;20447;-62
2022/02/26 05:04:40;;;;;;;8.43;5.32;;;;;;;-3.33;82.35;96656.78;6300676;22;19999;-62
2022/02/26 05:07:06;;;;;;;9.95;5.45;;;;;;;-3.36;82.33;96662.84;6300574;22;19996;-61
2022/02/26 05:09:31;;;;;;;9.35;5.97;;;;;;;-3.34;82.84;96657.66;6300199;22;20079;-61
2022/02/26 05:11:57;;;;;;;10.75;5.40;;;;;;;-3.31;84.16;96665.31;6300106;22;20391;-62
2022/02/26 05:14:22;;;;;;;7.18;5.10;;;;;;;-3.27;83.99;96656.63;6273289;22;20034;-62
2022/02/26 05:16:47;;;;;;;7.75;4.72;;;;;;;-3.24;83.89;96650.59;6300496;22;20019;-62
2022/02/26 05:19:13;;;;;;;6.53;5.07;;;;;;;-3.29;85.30;96658.41;6300722;22;20686;-62
2022/02/26 05:21:38;;;;;;;13.05;9.88;;;;;;;-3.34;84.75;96657.66;6300605;22;20347;-61
2022/02/26 05:24:04;;;;;;;8.80;7.43;;;;;;;-3.40;85.76;96657.81;6300537;22;20010;-62
2022/02/26 05:26:29;;;;;;;9.15;6.25;;;;;;;-3.24;83.30;96656.56;6300402;22;19999;-62
2022/02/26 05:28:55;;;;;;;8.15;5.72;;;;;;;-3.10;82.70;96655.44;6300422;22;20106;-61
2022/02/26 05:31:20;;;;;;;8.80;6.20;;;;;;;-3.27;83.79;96651.50;6300697;22;20011;-62
2022/02/26 05:33:46;;;;;;;12.45;7.30;;;;;;;-3.40;84.75;96650.09;6300568;22;20003;-61
2022/02/26 05:36:12;;;;;;;8.98;6.43;;;;;;;-3.48;85.27;96653.66;6300863;22;20443;-62
2022/02/26 05:38:37;;;;;;;11.10;7.32;;;;;;;-3.46;84.09;96653.63;6300917;22;20044;-62
2022/02/26 05:41:05;;;;;;;8.80;6.78;;;;;;;-3.48;84.67;96656.22;6300700;22;20022;-61
2022/02/26 05:43:30;;;;;;;8.88;6.60;;;;;;;-3.48;84.41;96658.78;6301070;22;20054;-62
2022/02/26 05:45:56;;;;;;;8.70;7.03;;;;;;;-3.53;84.76;96657.22;6300805;22;20383;-61
2022/02/26 05:48:21;;;;;;;8.57;5.95;;;;;;;-3.54;85.06;96660.66;6300680;22;20010;-62
2022/02/26 05:50:46;;;;;;;10.80;7.07;;;;;;;-3.51;84.44;96653.72;6300830;22;20003;-62
2022/02/26 05:53:12;;;;;;;7.65;6.82;;;;;;;-3.48;84.21;96651.06;6300659;22;20415;-62
2022/02/26 05:55:37;;;;;;;9.63;6.53;;;;;;;-3.50;85.23;96654.56;6300798;22;20074;-62
2022/02/26 05:58:02;;;;;;;11.85;7.32;;;;;;;-3.59;85.15;96660.75;6300695;22;20007;-62
2022/02/26 06:00:28;;;;;;;10.98;7.28;;;;;;;-3.64;85.20;96652.28;6300765;22;20004;-62
2022/02/26 06:02:53;;;;;;;9.73;7.75;;;;;;;-3.67;86.28;96649.75;6300740;22;20003;-62
2022/02/26 06:05:19;;;;;;;9.60;7.07;;;;;;;-3.68;86.31;96656.66;6300592;22;20003;-62
2022/02/26 06:07:44;;;;;;;11.70;6.55;;;;;;;-3.64;85.79;96660.84;6300805;22;20051;-62
2022/02/26 06:10:09;;;;;;;6.60;5.85;;;;;;;-3.62;84.67;96653.94;6300506;22;20465;-62
2022/02/26 06:12:35;;;;;;;9.73;6.70;;;;;;;-3.65;84.40;96658.28;6300931;22;20017;-61
2022/02/26 06:15:02;;;;;;;7.38;6.45;;;;;;;-3.67;84.78;96653.19;6300499;22;20392;-62
2022/02/26 06:17:28;;;;;;;9.00;6.63;;;;;;;-3.68;85.04;96661.78;6300884;22;20023;-62
2022/02/26 06:19:53;;;;;;;8.88;6.13;;;;;;;-3.72;86.77;96660.16;6301077;22;20454;-62
2022/02/26 06:22:19;;;;;;;9.00;6.60;;;;;;;-3.75;86.35;96658.50;6300300;22;20434;-62
2022/02/26 06:24:44;;;;;;;9.27;7.03;;;;;;;-3.76;86.21;96659.38;6300488;22;20002;-62
2022/02/26 06:27:10;;;;;;;12.40;7.25;;;;;;;-3.77;85.62;96657.66;6300312;22;20431;-62
2022/02/26 06:29:35;;;;;;;10.45;7.20;;;;;;;-3.74;84.78;96661.94;6300746;22;20008;-62
2022/02/26 06:32:01;;;;;;;6.93;5.70;;;;;;;-3.68;84.61;96666.06;6300426;22;20339;-62
2022/02/26 06:34:28;;;;;;;8.55;6.00;;;;;;;-3.64;84.05;96666.00;6300434;22;20342;-62
2022/02/26 06:36:53;;;;;;;6.88;6.00;;;;;;;-3.68;84.34;96669.50;6300391;22;20029;-62
2022/02/26 06:39:19;;;;;;;9.63;6.30;;;;;;;-3.76;84.41;96672.22;6273146;22;20008;-62
2022/02/26 06:41:44;;;;;;;13.38;7.45;;;;;;;-3.75;85.36;96678.25;6300480;22;20608;-62
2022/02/26 06:44:10;;;;;;;9.70;7.32;;;;;;;-3.76;85.46;96685.09;6300255;22;20074;-62
2022/02/26 06:46:37;;;;;;;8.90;6.53;;;;;;;-3.75;85.07;96681.66;6300685;22;20377;-62
2022/02/26 06:49:04;;;;;;;14.65;8.88;;;;;;;-3.71;85.64;96684.16;6300619;22;20007;-62
2022/02/26 06:51:30;;;;;;;16.52;10.27;;;;;;;-3.71;85.44;96689.31;6300331;22;20029;-62
2022/02/26 06:53:56;;;;;;;13.40;10.13;;;;;;;-3.70;85.03;96689.28;6300180;22;20010;-62
2022/02/26 06:56:21;;;;;;;16.05;10.73;;;;;;;-3.58;84.86;96697.63;6297318;22;20472;-62
2022/02/26 06:58:47;;;;;;;14.82;11.02;;;;;;;-3.58;83.36;96703.66;6299501;22;20030;-62
2022/02/26 07:01:12;;;;;;;12.30;11.02;;;;;;;-3.57;83.53;96709.63;6298988;22;20007;-61
2022/02/26 07:03:37;;;;;;;11.00;8.32;;;;;;;-3.56;82.89;96716.47;6299768;22;20003;-62
2022/02/26 07:06:03;;;;;;;13.20;8.50;;;;;;;-3.57;83.36;96720.78;6299290;22;20438;-62
2022/02/26 07:08:28;;;;;;;8.93;7.25;;;;;;;-3.52;83.35;96721.53;6299700;22;20003;-62
2022/02/26 07:10:54;;;;;;;9.52;8.52;;;;;;;-3.51;83.99;96712.94;6299203;22;20018;-62
2022/02/26 07:13:20;;;;;;;12.93;8.90;;;;;;;-3.47;83.56;96727.44;6271944;22;20007;-62
2022/02/26 07:15:45;;;;;;;11.07;9.27;;;;;;;-3.48;83.64;96720.59;6299259;22;20063;-62
2022/02/26 07:18:11;;;;;;;12.27;9.00;;;;;;;-3.43;83.47;96723.09;6299236;22;20003;-62
2022/02/26 07:20:37;;;;;;;12.05;10.20;;;;;;;-3.43;83.54;96730.81;6298687;22;20007;-62
2022/02/26 07:23:03;;;;;;;13.63;10.95;;;;;;;-3.39;84.50;96739.34;6298506;22;20035;-62
2022/02/26 07:25:29;;;;;;;17.42;11.32;;;;;;;-3.34;83.58;96737.50;6298368;22;20010;-62
2022/02/26 07:27:54;;;;;;;12.73;9.68;;;;;;;-3.28;82.64;96736.53;6299216;22;20070;-62
2022/02/26 07:30:19;;;;;;;13.10;9.48;;;;;;;-3.26;82.24;96735.59;6299183;22;20014;-61
2022/02/26 07:32:45;;;;;;;13.40;11.38;;;;;;;-3.25;82.85;96745.03;6298844;22;20339;-62
2022/02/26 07:35:11;;;;;;;15.07;11.70;;;;;;;-3.29;83.33;96742.56;6299836;22;20007;-62
2022/02/26 07:37:36;;;;;;;15.93;12.10;;;;;;;-3.29;83.46;96751.13;6300809;22;20346;-62
2022/02/26 07:40:04;;;;;;;15.68;12.93;;;;;;;-3.26;83.45;96755.38;6300460;22;19995;-62
2022/02/26 07:42:30;;;;;;;15.23;11.63;;;;;;;-3.29;83.88;96755.44;6299510;22;19999;-62
2022/02/26 07:44:56;;;;;;;12.90;10.13;;;;;;;-3.27;83.13;96753.69;6299477;22;20003;-62
2022/02/26 07:47:22;;;;;;;15.13;9.52;;;;;;;-3.23;83.55;96761.31;6300150;22;20344;-62
2022/02/26 07:49:48;;;;;;;11.27;9.07;;;;;;;-3.14;83.00;96749.97;6300605;22;20052;-62
2022/02/26 07:52:14;;;;;;;10.25;7.85;;;;;;;-3.05;81.36;96754.06;6299777;22;20023;-62
2022/02/26 07:54:40;;;;;;;17.20;13.88;;;;;;;-3.05;80.89;96746.34;6298687;22;20003;-62
2022/02/26 07:57:06;;;;;;;11.13;8.95;;;;;;;-3.05;81.71;96754.94;6298754;22;20010;-62
2022/02/26 07:59:31;;;;;;;15.60;10.57;;;;;;;-3.06;82.16;96755.81;6297050;22;20011;-62
2022/02/26 08:01:59;;;;;;;15.65;11.52;;;;;;;-3.00;80.92;96754.81;6299097;22;20016;-62
2022/02/26 08:04:28;;;;;;;14.18;10.93;;;;;;;-2.85;79.88;96750.22;6299660;22;20003;-62
2022/02/26 08:06:54;;;;;;;16.08;12.40;;;;;;;-2.84;79.80;96751.91;6298320;22;20000;-62
2022/02/26 08:09:20;;;;;;;14.13;11.88;;;;;;;-2.83;80.11;96746.75;6298098;22;19999;-63
2022/02/26 08:11:45;;;;;;;16.50;10.63;;;;;;;-2.81;80.56;96738.97;6269997;22;20515;-62
2022/02/26 08:14:11;;;;;;;13.05;11.65;;;;;;;-2.74;79.78;96743.13;6299489;22;20003;-62
2022/02/26 08:16:36;;;;;;;12.10;9.98;;;;;;;-2.59;80.36;96742.75;6300099;22;20014;-62
2022/02/26 08:19:02;;;;;;;14.88;11.15;;;;;;;-1.98;80.47;96738.75;6299827;22;20346;-62
2022/02/26 08:21:28;;;;;;;13.27;9.13;;;;;;;-1.30;78.14;96738.63;6299062;22;20356;-62
2022/02/26 08:23:53;;;;;;;13.05;8.57;;;;;;;-0.62;76.01;96739.22;6300700;22;20049;-62
2022/02/26 08:26:19;;;;;;;15.68;11.48;;;;;;;0.07;73.61;96739.63;6299998;22;20102;-61
2022/02/26 08:28:48;;;;;;;14.35;11.77;;;;;;;0.48;70.90;96739.13;6300305;22;20018;-61
2022/02/26 08:31:13;;;;;;;15.93;10.25;;;;;;;0.70;69.45;96740.06;6298024;22;20047;-62
2022/02/26 08:33:39;;;;;;;17.17;11.55;;;;;;;0.98;69.34;96731.25;6298829;22;20377;-62
2022/02/26 08:36:04;;;;;;;11.45;9.05;;;;;;;1.26;66.05;96726.78;6295658;22;20011;-62
2022/02/26 08:38:30;;;;;;;9.38;6.32;;;;;;;1.76;65.88;96733.47;6297989;22;20047;-62
2022/02/26 08:40:56;;;;;;;12.70;6.57;;;;;;;2.41;59.93;96737.75;6299910;22;20007;-63
2022/02/26 08:43:21;;;;;;;7.57;4.80;;;;;;;2.72;57.84;96741.59;6297742;22;20051;-64
2022/02/26 08:45:47;;;;;;;7.80;5.80;;;;;;;2.97;58.49;96743.97;6298072;22;20007;-62
2022/02/26 08:48:12;;;;;;;5.55;4.40;;;;;;;3.15;55.90;96742.28;6298269;22;20003;-63
2022/02/26 08:50:38;;;;;;;6.70;4.10;;;;;;;3.39;55.24;96741.22;6298462;22;20007;-62
2022/02/26 08:53:03;;;;;;;5.55;4.75;;;;;;;3.44;51.82;96744.44;6299242;22;20018;-62
2022/02/26 08:55:29;;;;;;;6.45;4.85;;;;;;;3.69;55.04;96745.88;6300053;22;20083;-62
2022/02/26 08:57:55;;;;;;;3.85;3.03;;;;;;;3.63;53.49;96749.63;6299408;22;20010;-62
2022/02/26 09:00:20;;;;;;;7.18;4.13;;;;;;;3.64;54.88;96743.50;6294876;22;20043;-62
2022/02/26 09:02:46;;;;;;;8.73;3.88;;;;;;;3.88;53.09;96743.25;6298193;22;20343;-63
2022/02/26 09:05:12;;;;;;;9.00;3.30;;;;;;;4.05;52.38;96749.38;6295730;22;20478;-63
2022/02/26 09:07:37;;;;;;;3.72;2.78;;;;;;;4.08;50.36;96744.00;6298371;22;19999;-62
2022/02/26 09:10:04;;;;;;;3.95;2.85;;;;;;;4.33;51.15;96748.84;6298524;22;20019;-62
2022/02/26 09:12:29;;;;;;;4.88;2.55;;;;;;;4.59;50.25;96739.72;6298840;22;20465;-62
2022/02/26 09:14:55;;;;;;;2.35;2.05;;;;;;;4.71;48.57;96746.06;6299142;22;20007;-60
2022/02/26 09:17:20;;;;;;;10.32;5.18;;;;;;;4.86;48.89;96749.63;6297786;22;20075;-61
2022/02/26 09:19:46;;;;;;;24.15;11.65;;;;;;;5.02;48.95;96746.22;6297907;22;19999;-60
2022/02/26 09:22:11;;;;;;;10.38;4.78;;;;;;;5.08;49.85;96747.63;6298557;22;20003;-62
2022/02/26 09:24:37;;;;;;;20.20;11.43;;;;;;;4.81;50.42;96745.56;6300377;22;20098;-62
2022/02/26 09:27:02;;;;;;;7.03;4.00;;;;;;;4.84;50.04;96748.00;6300938;22;20033;-62
2022/02/26 09:29:28;;;;;;;7.05;2.40;;;;;;;4.62;50.67;96749.13;6300631;22;20000;-60
2022/02/26 09:31:53;;;;;;;11.18;6.35;;;;;;;4.69;51.58;96747.03;6300615;22;20052;-60
2022/02/26 09:34:20;;;;;;;17.55;10.02;;;;;;;4.87;51.02;96751.31;6300559;22;19999;-61
2022/02/26 09:36:47;;;;;;;10.88;4.88;;;;;;;4.94;50.44;96745.75;6300556;22;20446;-60
2022/02/26 09:39:13;;;;;;;14.43;8.32;;;;;;;5.06;47.67;96739.03;6300728;22;20013;-60
2022/02/26 09:41:40;;;;;;;12.52;5.90;;;;;;;5.18;45.14;96748.84;6300392;22;20457;-60
2022/02/26 09:44:07;;;;;;;10.38;5.68;;;;;;;5.47;45.75;96745.56;6272499;22;20007;-61
2022/02/26 09:46:33;;;;;;;12.30;7.70;;;;;;;5.69;44.14;96732.16;6299748;22;20383;-61
2022/02/26 09:48:59;;;;;;;11.57;6.63;;;;;;;5.82;41.80;96732.31;6300138;22;20031;-61
2022/02/26 09:51:24;;;;;;;9.52;4.30;;;;;;;5.96;42.95;96732.38;6299283;22;20443;-62
2022/02/26 09:53:52;;;;;;;7.90;5.65;;;;;;;6.33;41.54;96731.22;6300105;22;20006;-61
2022/02/26 09:56:17;;;;;;;5.50;3.70;;;;;;;6.66;41.74;96732.75;6299797;22;20404;-62
2022/02/26 09:58:42;;;;;;;8.23;4.18;;;;;;;7.12;40.89;96739.59;6300597;22;20004;-61
2022/02/26 10:01:08;;;;;;;3.42;2.58;;;;;;;7.50;41.26;96735.50;6299816;22;20087;-62
2022/02/26 10:03:35;;;;;;;3.47;2.95;;;;;;;7.59;39.68;96740.16;6299243;22;19999;-62
2022/02/26 10:06:19;;;;;;;6.13;4.13;;;;;;;7.65;40.09;96738.91;6299699;22;20346;-62
2022/02/26 10:08:51;;;;;;;3.35;2.78;;;;;;;8.06;38.10;96735.41;6300541;22;20011;-63
2022/02/26 10:11:42;;;;;;;4.50;3.47;;;;;;;8.58;38.58;96730.28;6299841;22;20043;-62
2022/02/26 10:14:17;;;;;;;3.58;3.25;;;;;;;8.68;36.13;96728.72;6272413;22;20346;-61
2022/02/26 10:16:44;;;;;;;2.75;2.55;;;;;;;8.46;36.70;96726.66;6300286;22;19999;-61
2022/02/26 10:19:10;;;;;;;4.18;2.95;;;;;;;8.31;38.07;96729.38;6272955;22;20312;-62
2022/02/26 10:21:41;;;;;;;3.85;3.25;;;;;;;8.50;38.10;96722.09;6300474;22;20051;-61
2022/02/26 10:24:07;;;;;;;4.80;2.78;;;;;;;8.54;36.93;96719.16;6300059;22;20039;-59
2022/02/26 10:26:32;;;;;;;3.95;2.25;;;;;;;8.69;36.72;96719.03;6300178;22;19999;-64
2022/02/26 10:29:10;;;;;;;7.10;2.58;;;;;;;8.58;36.59;96711.91;6300217;22;20003;-61
2022/02/26 10:31:51;;;;;;;5.47;2.40;;;;;;;8.43;37.06;96725.09;6300149;22;20410;-61
2022/02/26 10:34:43;;;;;;;3.10;2.60;;;;;;;8.72;36.83;96708.31;6299606;22;20124;-61
2022/02/26 10:37:16;;;;;;;3.25;2.60;;;;;;;8.57;37.17;96707.59;6299120;22;20018;-61
2022/02/26 10:39:43;;;;;;;4.45;3.33;;;;;;;8.76;37.80;96716.84;6300129;22;20003;-61
2022/02/26 10:42:30;;;;;;;5.82;2.60;;;;;;;9.10;36.79;96715.34;6298568;22;20003;-62
2022/02/26 10:45:03;;;;;;;3.75;2.25;;;;;;;9.08;36.21;96704.09;6299880;22;20007;-59
2022/02/26 10:47:30;;;;;;;4.43;2.17;;;;;;;9.28;37.10;96707.97;6272379;22;20348;-60
2022/02/26 10:49:56;;;;;;;7.65;4.45;;;;;;;9.49;36.73;96704.72;6299887;22;20014;-60
2022/02/26 10:52:22;;;;;;;4.60;3.60;;;;;;;9.95;36.98;96699.72;6299498;22;20000;-60
2022/02/26 10:54:52;;;;;;;3.38;2.42;;;;;;;9.90;33.86;96697.44;6299731;22;20086;-60
2022/02/26 10:57:17;;;;;;;2.92;2.40;;;;;;;9.90;33.90;96705.31;6300108;22;20006;-60
2022/02/26 10:59:45;;;;;;;5.45;2.30;;;;;;;10.34;33.72;96702.13;6299954;22;20003;-60
2022/02/26 11:02:25;;;;;;;3.88;2.22;;;;;;;10.68;34.88;96702.19;6298469;22;20003;-60
2022/02/26 11:04:56;;;;;;;3.00;2.70;;;;;;;11.58;32.98;96689.94;6299626;22;20030;-60
2022/02/26 11:07:22;;;;;;;2.97;2.75;;;;;;;12.39;32.85;96691.34;6299892;22;20037;-60
2022/02/26 11:09:52;;;;;;;3.58;2.35;;;;;;;12.40;31.77;96696.50;6299841;22;20015;-58
2022/02/26 11:12:18;;;;;;;3.67;2.50;;;;;;;12.07;32.63;96697.50;6301087;22;20007;-58
2022/02/26 11:15:07;;;;;;;5.25;2.70;;;;;;;11.99;32.45;96687.53;6301239;22;20033;-58
2022/02/26 11:17:36;;;;;;;3.00;2.30;;;;;;;12.46;33.31;96689.84;6299082;22;20034;-58
2022/02/26 11:20:03;;;;;;;4.10;2.35;;;;;;;13.03;31.80;96685.00;6299451;22;20360;-60
2022/02/26 11:22:29;;;;;;;3.47;2.50;;;;;;;13.33;31.70;96678.00;6300467;22;20441;-59
2022/02/26 11:24:55;;;;;;;2.47;2.10;;;;;;;13.25;31.79;96671.72;6300977;22;20009;-60
2022/02/26 11:27:26;;;;;;;2.92;2.30;;;;;;;13.13;29.36;96665.69;6272743;22;20439;-59